createdAt,value
2023-05-23T00:02:21.727Z,8.52
2023-05-23T00:04:49.791Z,8.88
2023-05-23T00:07:17.801Z,10.50
2023-05-23T00:09:45.484Z,8.43
2023-05-23T00:12:14.019Z,9.10
2023-05-23T00:14:41.904Z,8.95
2023-05-23T00:17:11.278Z,9.32
2023-05-23T00:19:39.106Z,8.70
2023-05-23T00:22:07.619Z,9.32
2023-05-23T00:24:35.391Z,9.57
2023-05-23T00:27:04.173Z,8.73
2023-05-23T00:29:32.100Z,8.60
2023-05-23T00:32:00.858Z,8.48
2023-05-23T00:34:29.057Z,9.55
2023-05-23T00:36:58.444Z,8.85
2023-05-23T00:39:26.363Z,9.07
2023-05-23T00:41:54.568Z,9.23
2023-05-23T00:44:22.948Z,9.00
2023-05-23T00:46:55.580Z,9.70
2023-05-23T00:49:24.178Z,9.68
2023-05-23T00:51:52.986Z,9.45
2023-05-23T00:54:27.558Z,9.27
2023-05-23T00:56:56.549Z,10.07
2023-05-23T00:59:27.783Z,9.70
2023-05-23T01:01:57.741Z,9.60
2023-05-23T01:04:27.281Z,9.68
2023-05-23T01:06:56.883Z,9.75
2023-05-23T01:09:26.401Z,10.05
2023-05-23T01:12:16.669Z,10.13
2023-05-23T01:15:09.213Z,10.20
2023-05-23T01:17:56.655Z,10.32
2023-05-23T01:20:50.702Z,10.23
2023-05-23T01:23:38.021Z,11.25
2023-05-23T01:26:43.332Z,11.77
2023-05-23T01:29:14.039Z,11.55
2023-05-23T01:31:47.681Z,10.48
2023-05-23T01:34:17.337Z,10.45
2023-05-23T01:36:45.327Z,10.50
2023-05-23T01:39:14.010Z,11.32
2023-05-23T01:41:41.995Z,11.07
2023-05-23T01:44:10.193Z,11.20
2023-05-23T01:46:39.812Z,10.57
2023-05-23T01:49:09.590Z,11.73
2023-05-23T01:51:37.899Z,12.05
2023-05-23T01:54:06.783Z,10.80
2023-05-23T01:56:35.565Z,12.00
2023-05-23T01:59:04.113Z,11.32
2023-05-23T02:01:32.687Z,11.65
2023-05-23T02:04:01.473Z,10.88
2023-05-23T02:06:29.320Z,11.05
2023-05-23T02:08:58.014Z,11.35
2023-05-23T02:11:27.359Z,11.80
2023-05-23T02:13:55.469Z,12.35
2023-05-23T02:16:24.012Z,12.20
2023-05-23T02:18:53.609Z,12.15
2023-05-23T02:21:21.447Z,11.63
2023-05-23T02:23:49.736Z,12.15
2023-05-23T02:26:18.729Z,12.30
2023-05-23T02:28:47.290Z,12.60
2023-05-23T02:31:17.643Z,12.45
2023-05-23T02:33:46.608Z,12.05
2023-05-23T02:36:15.335Z,12.77
2023-05-23T02:38:43.821Z,11.80
2023-05-23T02:41:12.068Z,12.75
2023-05-23T02:43:40.706Z,14.10
2023-05-23T02:46:09.068Z,12.70
2023-05-23T02:48:38.010Z,13.75
2023-05-23T02:51:07.091Z,12.52
2023-05-23T02:53:35.359Z,13.35
2023-05-23T02:56:03.520Z,13.80
2023-05-23T02:58:32.569Z,12.98
2023-05-23T03:01:00.364Z,13.30
2023-05-23T03:03:29.231Z,12.30
2023-05-23T03:05:58.714Z,13.13
2023-05-23T03:08:27.414Z,13.35
2023-05-23T03:10:56.049Z,12.93
2023-05-23T03:13:24.383Z,13.75
2023-05-23T03:15:52.104Z,13.50
2023-05-23T03:18:20.684Z,15.90
2023-05-23T03:20:48.634Z,15.43
2023-05-23T03:23:17.320Z,15.60
2023-05-23T03:25:46.750Z,15.15
2023-05-23T03:28:15.595Z,15.63
2023-05-23T03:30:43.801Z,16.05
2023-05-23T03:33:12.837Z,15.73
2023-05-23T03:35:41.045Z,16.27
2023-05-23T03:38:10.296Z,15.63
2023-05-23T03:40:38.307Z,14.68
2023-05-23T03:43:07.746Z,14.75
2023-05-23T03:45:39.519Z,16.23
2023-05-23T03:48:14.062Z,15.23
2023-05-23T03:50:44.081Z,15.57
2023-05-23T03:53:13.593Z,15.85
2023-05-23T03:55:43.147Z,15.82
2023-05-23T03:58:13.558Z,15.05
2023-05-23T04:00:44.484Z,14.38
2023-05-23T04:03:18.130Z,14.07
2023-05-23T04:05:46.835Z,13.68
2023-05-23T04:08:16.276Z,13.23
2023-05-23T04:10:44.917Z,13.73
2023-05-23T04:13:13.795Z,12.57
2023-05-23T04:15:43.301Z,13.20
2023-05-23T04:18:15.478Z,13.35
2023-05-23T04:20:44.145Z,12.43
2023-05-23T04:23:12.633Z,11.77
2023-05-23T04:25:43.521Z,11.85
2023-05-23T04:28:30.501Z,11.80
2023-05-23T04:30:59.133Z,10.80
2023-05-23T04:33:31.065Z,11.45
2023-05-23T04:35:59.598Z,12.27
2023-05-23T04:38:28.413Z,11.48
2023-05-23T04:40:58.339Z,11.90
2023-05-23T04:43:54.579Z,9.90
2023-05-23T04:46:29.181Z,11.25
2023-05-23T04:49:34.348Z,10.48
2023-05-23T04:52:02.945Z,10.82
2023-05-23T04:54:33.382Z,10.77
2023-05-23T04:57:04.831Z,10.00
2023-05-23T04:59:33.449Z,10.10
2023-05-23T05:02:01.284Z,9.80
2023-05-23T05:04:30.957Z,9.60
2023-05-23T05:06:58.874Z,9.63
2023-05-23T05:09:27.258Z,10.40
2023-05-23T05:11:55.352Z,9.00
2023-05-23T05:14:23.711Z,10.60
2023-05-23T05:16:51.748Z,9.82
2023-05-23T05:19:22.232Z,9.75
2023-05-23T05:21:50.570Z,9.10
2023-05-23T05:24:21.331Z,9.05
2023-05-23T05:26:50.260Z,8.57
2023-05-23T05:29:18.749Z,8.73
2023-05-23T05:31:47.436Z,8.77
2023-05-23T05:34:16.263Z,9.40
2023-05-23T05:36:48.823Z,8.45
2023-05-23T05:39:19.345Z,8.00
2023-05-23T05:41:47.354Z,7.80
2023-05-23T05:44:16.496Z,7.90
2023-05-23T05:46:47.127Z,8.02
2023-05-23T05:49:15.745Z,8.60
2023-05-23T05:51:45.980Z,8.20
2023-05-23T05:54:14.424Z,8.25
2023-05-23T05:56:42.652Z,7.75
2023-05-23T05:59:12.029Z,7.40
2023-05-23T06:01:41.287Z,7.93
2023-05-23T06:04:09.772Z,7.55
2023-05-23T06:06:38.205Z,7.93
2023-05-23T06:09:06.782Z,7.47
2023-05-23T06:11:40.986Z,8.35
2023-05-23T06:16:42.515Z,5.80
2023-05-23T06:19:10.678Z,6.50
2023-05-23T06:21:41.061Z,5.93
2023-05-23T06:24:11.897Z,5.82
2023-05-23T06:26:39.730Z,5.53
2023-05-23T06:29:09.706Z,4.78
2023-05-23T06:31:37.848Z,5.88
2023-05-23T06:34:06.858Z,5.35
2023-05-23T06:36:34.611Z,4.88
2023-05-23T06:39:02.994Z,4.38
2023-05-23T06:41:31.648Z,4.40
2023-05-23T06:44:00.051Z,4.32
2023-05-23T06:46:31.471Z,3.95
2023-05-23T06:49:13.729Z,4.28
2023-05-23T06:51:44.178Z,4.75
2023-05-23T06:54:13.349Z,4.90
2023-05-23T06:56:41.435Z,4.60
2023-05-23T06:59:11.253Z,4.93
2023-05-23T07:01:40.623Z,4.57
2023-05-23T07:04:08.969Z,4.28
2023-05-23T07:06:37.409Z,4.57
2023-05-23T07:09:07.132Z,4.50
2023-05-23T07:11:36.011Z,5.00
2023-05-23T07:14:08.014Z,4.35
2023-05-23T07:16:38.579Z,4.22
2023-05-23T07:19:09.542Z,4.97
2023-05-23T07:21:43.881Z,4.22
2023-05-23T07:24:14.515Z,4.65
2023-05-23T07:26:43.025Z,3.10
2023-05-23T07:29:11.677Z,3.88
2023-05-23T07:31:39.619Z,3.50
2023-05-23T07:34:09.706Z,2.88
2023-05-23T07:36:52.061Z,3.92
2023-05-23T07:39:22.976Z,3.70
2023-05-23T07:41:52.267Z,3.72
2023-05-23T07:44:24.723Z,3.17
2023-05-23T07:46:54.192Z,3.35
2023-05-23T07:49:23.257Z,3.95
2023-05-23T07:51:51.318Z,3.42
2023-05-23T07:54:20.658Z,3.95
2023-05-23T07:56:52.664Z,4.63
2023-05-23T07:59:21.107Z,3.75
2023-05-23T08:01:51.682Z,3.63
2023-05-23T08:04:22.364Z,3.30
2023-05-23T08:09:30.939Z,2.78
2023-05-23T08:11:59.501Z,3.67
2023-05-23T08:14:49.130Z,3.22
2023-05-23T08:17:23.028Z,4.57
2023-05-23T08:19:51.230Z,3.33
2023-05-23T08:22:19.300Z,3.30
2023-05-23T08:24:47.710Z,2.75
2023-05-23T08:27:16.242Z,2.15
2023-05-23T08:29:46.840Z,2.90
2023-05-23T08:32:15.241Z,2.90
2023-05-23T08:34:44.272Z,2.95
2023-05-23T08:37:12.086Z,2.55
2023-05-23T08:39:40.396Z,2.90
2023-05-23T08:42:34.022Z,2.90
2023-05-23T08:45:02.642Z,2.55
2023-05-23T08:47:33.541Z,3.10
2023-05-23T08:50:07.003Z,2.72
2023-05-23T08:52:38.761Z,2.75
2023-05-23T08:55:09.109Z,2.78
2023-05-23T08:57:37.227Z,2.63
2023-05-23T09:00:25.429Z,2.53
2023-05-23T09:02:55.199Z,2.83
2023-05-23T09:05:42.760Z,2.50
2023-05-23T09:08:11.143Z,2.83
2023-05-23T09:10:40.978Z,2.78
2023-05-23T09:13:10.778Z,2.90
2023-05-23T09:16:02.156Z,2.22
2023-05-23T09:18:38.677Z,2.30
2023-05-23T09:21:09.434Z,2.50
2023-05-23T09:23:42.030Z,2.83
2023-05-23T09:26:13.688Z,2.80
2023-05-23T09:28:44.086Z,2.60
2023-05-23T09:31:12.660Z,2.22
2023-05-23T09:33:43.647Z,2.90
2023-05-23T09:36:12.338Z,2.67
2023-05-23T09:38:42.013Z,2.38
2023-05-23T09:41:14.542Z,2.45
2023-05-23T09:43:55.631Z,2.38
2023-05-23T09:46:24.319Z,2.40
2023-05-23T09:48:53.313Z,2.60
2023-05-23T09:51:22.865Z,2.13
2023-05-23T09:53:52.666Z,2.53
2023-05-23T09:56:21.169Z,2.53
2023-05-23T09:58:50.451Z,2.80
2023-05-23T10:01:18.816Z,2.63
2023-05-23T10:03:52.258Z,2.40
2023-05-23T10:06:28.873Z,2.25
2023-05-23T10:09:05.601Z,2.53
2023-05-23T10:11:37.016Z,4.38
2023-05-23T10:14:08.877Z,2.83
2023-05-23T10:17:10.207Z,2.88
2023-05-23T10:19:43.056Z,2.65
2023-05-23T10:22:13.048Z,2.40
2023-05-23T10:24:41.348Z,2.67
2023-05-23T10:27:09.771Z,2.50
2023-05-23T10:29:38.589Z,2.55
2023-05-23T10:32:07.906Z,2.50
2023-05-23T10:34:54.790Z,2.90
2023-05-23T10:38:00.873Z,2.88
2023-05-23T10:40:52.679Z,2.67
2023-05-23T10:43:33.687Z,2.58
2023-05-23T10:46:01.635Z,2.97
2023-05-23T10:48:30.034Z,3.15
2023-05-23T10:51:06.206Z,2.72
2023-05-23T10:53:43.355Z,2.50
2023-05-23T10:56:22.030Z,3.10
2023-05-23T10:58:55.319Z,2.80
2023-05-23T11:01:24.092Z,2.70
2023-05-23T11:03:55.729Z,2.97
2023-05-23T11:06:35.604Z,2.20
2023-05-23T11:09:17.318Z,2.70
2023-05-23T11:11:54.234Z,2.80
2023-05-23T11:14:40.447Z,2.58
2023-05-23T11:17:14.181Z,2.85
2023-05-23T11:20:08.339Z,2.60
2023-05-23T11:22:37.034Z,2.75
2023-05-23T11:25:10.707Z,2.38
2023-05-23T11:27:40.974Z,2.80
2023-05-23T11:30:14.423Z,2.60
2023-05-23T11:32:43.682Z,2.58
2023-05-23T11:35:12.525Z,2.78
2023-05-23T11:37:41.220Z,3.05
2023-05-23T11:40:31.831Z,2.60
2023-05-23T11:43:04.206Z,2.50
2023-05-23T11:45:33.046Z,3.20
2023-05-23T11:48:12.181Z,2.95
2023-05-23T11:50:48.165Z,4.35
2023-05-23T11:53:19.301Z,2.88
2023-05-23T11:55:58.686Z,2.47
2023-05-23T11:58:31.814Z,2.95
2023-05-23T12:01:07.816Z,2.83
2023-05-23T12:03:45.238Z,2.92
2023-05-23T12:06:20.622Z,2.60
2023-05-23T12:08:48.464Z,3.00
2023-05-23T12:11:17.862Z,2.88
2023-05-23T12:13:46.511Z,3.45
2023-05-23T12:16:18.188Z,2.83
2023-05-23T12:18:46.626Z,3.30
2023-05-23T12:21:14.821Z,3.03
2023-05-23T12:23:43.086Z,3.00
2023-05-23T12:26:11.848Z,3.10
2023-05-23T12:28:45.724Z,3.00
2023-05-23T12:31:26.097Z,2.50
2023-05-23T12:33:54.771Z,2.70
2023-05-23T12:36:25.427Z,3.40
2023-05-23T12:38:54.184Z,3.05
2023-05-23T12:41:22.781Z,2.95
2023-05-23T12:43:55.496Z,3.28
2023-05-23T12:46:28.119Z,3.47
2023-05-23T12:48:56.080Z,2.90
2023-05-23T12:51:24.513Z,3.10
2023-05-23T12:53:52.648Z,3.05
2023-05-23T12:56:22.731Z,3.10
2023-05-23T12:58:50.696Z,3.20
2023-05-23T13:01:19.309Z,2.92
2023-05-23T13:03:47.963Z,4.05
2023-05-23T13:06:16.589Z,3.30
2023-05-23T13:08:44.409Z,3.28
2023-05-23T13:11:13.062Z,3.63
2023-05-23T13:13:41.342Z,2.92
2023-05-23T13:16:10.196Z,2.80
2023-05-23T13:18:38.124Z,3.38
2023-05-23T13:21:06.635Z,3.00
2023-05-23T13:23:36.362Z,3.50
2023-05-23T13:26:05.080Z,3.20
2023-05-23T13:28:34.602Z,3.40
2023-05-23T13:31:03.858Z,3.10
2023-05-23T13:33:32.062Z,3.47
2023-05-23T13:36:00.744Z,3.42
2023-05-23T13:38:31.401Z,3.92
2023-05-23T13:40:59.930Z,3.53
2023-05-23T13:43:28.128Z,3.08
2023-05-23T13:45:56.330Z,3.10
2023-05-23T13:48:24.416Z,3.95
2023-05-23T13:50:53.188Z,3.42
2023-05-23T13:53:21.856Z,3.60
2023-05-23T13:55:50.091Z,3.92
2023-05-23T13:58:17.998Z,4.45
2023-05-23T14:00:46.677Z,3.30
2023-05-23T14:03:16.189Z,3.40
2023-05-23T14:05:44.710Z,3.22
2023-05-23T14:08:14.373Z,3.88
2023-05-23T14:10:43.139Z,3.38
2023-05-23T14:13:12.550Z,3.30
2023-05-23T14:15:42.862Z,3.67
2023-05-23T14:18:11.098Z,3.85
2023-05-23T14:20:39.681Z,3.33
2023-05-23T14:23:07.666Z,3.53
2023-05-23T14:25:36.184Z,3.78
2023-05-23T14:28:04.368Z,3.33
2023-05-23T14:30:32.478Z,3.20
2023-05-23T14:33:00.918Z,3.15
2023-05-23T14:35:29.844Z,3.72
2023-05-23T14:37:57.822Z,3.70
2023-05-23T14:40:26.848Z,3.47
2023-05-23T14:42:54.603Z,3.72
2023-05-23T14:45:23.378Z,3.95
2023-05-23T14:47:52.079Z,3.90
2023-05-23T14:50:20.491Z,4.00
2023-05-23T14:52:48.546Z,3.65
2023-05-23T14:55:17.155Z,3.47
2023-05-23T14:57:45.214Z,4.10
2023-05-23T15:00:14.511Z,3.67
2023-05-23T15:02:42.329Z,4.13
2023-05-23T15:05:11.287Z,3.67
2023-05-23T15:07:39.293Z,3.97
2023-05-23T15:10:08.509Z,3.78
2023-05-23T15:12:36.244Z,4.10
2023-05-23T15:15:05.070Z,4.35
2023-05-23T15:17:36.420Z,4.07
2023-05-23T15:20:07.198Z,3.95
2023-05-23T15:22:39.687Z,4.60
2023-05-23T15:27:37.162Z,3.70
2023-05-23T15:30:06.183Z,3.83
2023-05-23T15:32:34.143Z,3.65
2023-05-23T15:35:02.831Z,3.65
2023-05-23T15:37:30.627Z,4.18
2023-05-23T15:39:58.981Z,4.03
2023-05-23T15:42:26.814Z,4.45
2023-05-23T15:44:55.274Z,4.85
2023-05-23T15:47:23.417Z,3.60
2023-05-23T15:49:51.644Z,3.75
2023-05-23T15:52:19.472Z,3.80
2023-05-23T15:54:48.067Z,4.43
2023-05-23T15:57:16.019Z,3.90
2023-05-23T15:59:44.548Z,4.00
2023-05-23T16:02:12.401Z,3.80
2023-05-23T16:04:40.845Z,3.80
2023-05-23T16:07:08.953Z,3.92
2023-05-23T16:09:37.948Z,4.57
2023-05-23T16:12:06.130Z,4.10
2023-05-23T16:14:34.412Z,4.07
2023-05-23T16:17:03.637Z,4.25
2023-05-23T16:19:32.165Z,4.43
2023-05-23T16:22:00.448Z,6.05
2023-05-23T16:24:29.134Z,4.15
2023-05-23T16:26:56.969Z,3.70
2023-05-23T16:29:25.683Z,3.97
2023-05-23T16:31:53.964Z,3.78
2023-05-23T16:34:22.210Z,4.22
2023-05-23T16:36:49.937Z,4.40
2023-05-23T16:39:18.497Z,3.72
2023-05-23T16:41:46.757Z,4.38
2023-05-23T16:44:15.175Z,5.07
2023-05-23T16:46:43.635Z,4.05
2023-05-23T16:49:11.875Z,4.25
2023-05-23T16:51:39.602Z,5.25
2023-05-23T16:54:08.918Z,4.20
2023-05-23T16:56:39.353Z,3.95
2023-05-23T16:59:08.046Z,4.63
2023-05-23T17:01:36.146Z,4.47
2023-05-23T17:04:04.882Z,4.93
2023-05-23T17:06:33.718Z,4.05
2023-05-23T17:09:02.459Z,4.20
2023-05-23T17:11:30.685Z,4.43
2023-05-23T17:13:59.145Z,4.40
2023-05-23T17:16:27.480Z,4.45
2023-05-23T17:18:55.993Z,4.30
2023-05-23T17:21:23.847Z,4.35
2023-05-23T17:23:52.393Z,4.60
2023-05-23T17:26:20.410Z,4.82
2023-05-23T17:28:49.233Z,4.47
2023-05-23T17:31:17.196Z,4.82
2023-05-23T17:33:46.793Z,4.70
2023-05-23T17:36:14.883Z,4.53
2023-05-23T17:38:43.302Z,4.82
2023-05-23T17:41:11.536Z,4.68
2023-05-23T17:43:39.758Z,4.95
2023-05-23T17:46:08.167Z,4.90
2023-05-23T17:48:46.952Z,4.90
2023-05-23T17:51:16.391Z,4.65
2023-05-23T17:53:45.214Z,4.70
2023-05-23T17:56:13.695Z,5.15
2023-05-23T17:58:44.080Z,4.97
2023-05-23T18:01:13.735Z,4.65
2023-05-23T18:03:42.847Z,4.80
2023-05-23T18:06:10.755Z,5.05
2023-05-23T18:08:39.283Z,4.70
2023-05-23T18:11:07.177Z,5.10
2023-05-23T18:13:35.687Z,5.22
2023-05-23T18:16:03.461Z,5.13
2023-05-23T18:18:32.084Z,4.90
2023-05-23T18:21:00.014Z,5.10
2023-05-23T18:23:30.089Z,4.88
2023-05-23T18:25:58.316Z,5.13
2023-05-23T18:28:27.204Z,6.22
2023-05-23T18:30:55.010Z,6.35
2023-05-23T18:33:23.605Z,5.50
2023-05-23T18:35:52.029Z,5.43
2023-05-23T18:38:20.465Z,5.75
2023-05-23T18:40:48.520Z,5.88
2023-05-23T18:43:17.532Z,6.15
2023-05-23T18:45:45.973Z,5.70
2023-05-23T18:48:14.783Z,5.78
2023-05-23T18:50:42.917Z,9.95
2023-05-23T18:53:11.588Z,6.18
2023-05-23T18:55:39.778Z,6.28
2023-05-23T18:58:08.057Z,5.45
2023-05-23T19:00:36.114Z,5.72
2023-05-23T19:03:04.922Z,5.90
2023-05-23T19:05:33.304Z,6.22
2023-05-23T19:08:01.778Z,6.28
2023-05-23T19:10:29.968Z,6.05
2023-05-23T19:12:58.484Z,6.40
2023-05-23T19:15:26.411Z,6.40
2023-05-23T19:17:55.199Z,6.32
2023-05-23T19:20:23.154Z,6.07
2023-05-23T19:22:52.517Z,7.05
2023-05-23T19:25:22.194Z,6.97
2023-05-23T19:27:50.801Z,6.65
2023-05-23T19:30:19.125Z,6.85
2023-05-23T19:32:48.055Z,7.05
2023-05-23T19:35:17.047Z,7.05
2023-05-23T19:37:46.453Z,7.50
2023-05-23T19:40:15.044Z,7.20
2023-05-23T19:42:43.390Z,7.65
2023-05-23T19:45:12.120Z,7.13
2023-05-23T19:47:41.270Z,7.78
2023-05-23T19:50:15.044Z,7.32
2023-05-23T19:52:43.570Z,7.18
2023-05-23T19:55:12.025Z,7.35
2023-05-23T19:57:44.535Z,7.53
2023-05-23T20:00:15.362Z,7.65
2023-05-23T20:02:45.278Z,9.13
2023-05-23T20:05:14.057Z,8.15
2023-05-23T20:07:43.399Z,7.68
2023-05-23T20:10:11.514Z,8.02
2023-05-23T20:12:40.001Z,8.25
2023-05-23T20:15:09.271Z,8.27
2023-05-23T20:17:37.815Z,7.95
2023-05-23T20:20:06.814Z,7.72
2023-05-23T20:22:35.372Z,8.13
2023-05-23T20:25:04.570Z,8.25
2023-05-23T20:27:33.289Z,8.65
2023-05-23T20:30:01.463Z,8.50
2023-05-23T20:32:30.215Z,8.18
2023-05-23T20:34:58.234Z,8.90
2023-05-23T20:37:28.545Z,8.63
2023-05-23T20:39:56.646Z,8.52
2023-05-23T20:42:27.034Z,7.95
2023-05-23T20:44:54.758Z,8.18
2023-05-23T20:47:23.175Z,8.90
2023-05-23T20:49:51.238Z,9.10
2023-05-23T20:52:19.748Z,9.18
2023-05-23T20:54:48.568Z,8.73
2023-05-23T20:57:17.144Z,9.15
2023-05-23T20:59:46.405Z,8.82
2023-05-23T21:02:14.774Z,8.90
2023-05-23T21:04:42.812Z,8.73
2023-05-23T21:07:11.087Z,9.30
2023-05-23T21:09:39.054Z,9.63
2023-05-23T21:12:10.215Z,8.10
2023-05-23T21:14:38.422Z,9.05
2023-05-23T21:17:06.645Z,9.48
2023-05-23T21:19:34.701Z,9.75
2023-05-23T21:22:02.977Z,9.93
2023-05-23T21:24:30.764Z,9.20
2023-05-23T21:26:59.452Z,10.45
2023-05-23T21:29:27.312Z,9.88
2023-05-23T21:31:56.114Z,9.80
2023-05-23T21:34:24.651Z,9.73
2023-05-23T21:36:53.426Z,10.13
2023-05-23T21:39:22.008Z,9.57
2023-05-23T21:41:50.071Z,10.07
2023-05-23T21:44:19.020Z,9.98
2023-05-23T21:46:47.480Z,9.98
2023-05-23T21:49:15.582Z,9.73
2023-05-23T21:51:44.596Z,10.48
2023-05-23T21:54:12.534Z,9.55
2023-05-23T21:56:41.231Z,10.10
2023-05-23T21:59:09.684Z,10.52
2023-05-23T22:01:37.834Z,9.45
2023-05-23T22:04:06.313Z,8.90
2023-05-23T22:06:35.203Z,9.07
2023-05-23T22:09:05.913Z,8.82
2023-05-23T22:11:34.503Z,9.20
2023-05-23T22:14:02.706Z,8.80
2023-05-23T22:16:34.838Z,9.50
2023-05-23T22:19:05.585Z,8.98
2023-05-23T22:21:33.987Z,9.15
2023-05-23T22:24:01.962Z,9.13
2023-05-23T22:26:30.461Z,9.20
2023-05-23T22:29:00.052Z,9.50
2023-05-23T22:31:29.151Z,9.68
2023-05-23T22:33:57.102Z,9.20
2023-05-23T22:36:26.188Z,10.18
2023-05-23T22:38:53.843Z,9.70
2023-05-23T22:41:22.615Z,10.05
2023-05-23T22:43:50.323Z,9.50
2023-05-23T22:46:18.783Z,9.95
2023-05-23T22:48:46.714Z,10.07
2023-05-23T22:51:15.117Z,8.90
2023-05-23T22:53:43.949Z,9.65
2023-05-23T22:56:13.342Z,8.77
2023-05-23T22:58:40.986Z,9.05
2023-05-23T23:01:09.408Z,9.50
2023-05-23T23:03:37.161Z,8.63
2023-05-23T23:06:06.680Z,9.30
2023-05-23T23:08:34.926Z,9.10
2023-05-23T23:11:03.674Z,8.80
2023-05-23T23:13:31.872Z,9.00
2023-05-23T23:15:59.938Z,8.50
2023-05-23T23:18:27.697Z,9.05
2023-05-23T23:20:56.347Z,8.75
2023-05-23T23:23:24.370Z,9.32
2023-05-23T23:25:52.726Z,9.15
2023-05-23T23:28:24.443Z,8.80
2023-05-23T23:30:53.084Z,8.55
2023-05-23T23:33:21.079Z,8.63
2023-05-23T23:35:49.322Z,9.55
2023-05-23T23:38:17.031Z,8.27
2023-05-23T23:40:45.915Z,8.48
2023-05-23T23:43:14.391Z,9.15
2023-05-23T23:45:42.976Z,8.35
2023-05-23T23:48:11.035Z,8.73
2023-05-23T23:50:38.999Z,9.15
2023-05-23T23:53:08.325Z,8.45
2023-05-23T23:55:37.102Z,8.50
2023-05-23T23:58:05.555Z,7.75
